• pl
  • eng

Awiacja
WIADOMOŚCI
ostatnia aktualizacja: 11.01.2019 18:40
Szanowni Państwo,

uprzejmie informujemy, że z dniem 01.01.2019 roku z obszaru MOLC zostanie wyłączone BPM we Wrocławiu. Jego zadania zostaną przejęte przez BPM w Krakowie.

TAF FT 03:30 20.02.2019
  • WIND
  • SIGNIFICANT EURO
  • SIGNIFICANT
  • SIGMET
  • AIRMET
  • TAF FC
  • TAF FT
  • METAR GG30
  • METAR GG00


TAF EPBY 192330Z 2000/2024 26012KT 9999 BKN020
TEMPO 2000/2018 27016G26KT -SHRA BKN008 BKN014TCU
BECMG 2021/2023 -RA BKN010=

TAF EPGD 192330Z 2000/2024 27014KT 9999 BKN020
PROB40 TEMPO 2000/2014 27018G28KT -SHRA BKN014TCU=

TAF EPKK 200230Z 2003/2103 24005KT 4000 BR SCT040
PROB30 TEMPO 2003/2009 SHRA BKN014 BKN025CB
BECMG 2006/2009 8000
TEMPO 2009/2015 27015G25KT SHRA BKN014 BKN025CB
TEMPO 2021/2103 4000 -RA BR BKN012=

TAF EPKT 192330Z 2000/2024 28010KT 9999 BKN044
TEMPO 2000/2016 4000 SHRA BKN014 BKN025CB
PROB30 TEMPO 2009/2016 28015G25KT
TEMPO 2021/2024 4000 -RA BR BKN009=

TAF EPLL 192330Z 2000/2024 24010KT 9999 SCT030
TEMPO 2002/2024 -SHRA BKN014TCU
PROB40 TEMPO 2008/2015 27015G25KT SHRA=

TAF EPMO 192330Z 2000/2024 26008KT 9999 SCT030
TEMPO 2002/2016 -SHRA BKN014TCU
PROB40 TEMPO 2008/2015 27015G25KT=

TAF AMD EPPO 200204Z 2002/2024 27012KT 9999 SCT030
TEMPO 2002/2024 27015G25KT SHRA BKN014CB=

TAF EPRZ 192330Z 2000/2024 26008KT CAVOK
TEMPO 2000/2002 4000 RA BR BKN013
TEMPO 2002/2018 SHRA BKN014 BKN025CB
PROB30 TEMPO 2009/2018 30015G25KT
TEMPO 2021/2024 4000 -RA BR BKN012=

TAF EPSC 192330Z 2000/2024 25010KT 9999 BKN020
PROB40 TEMPO 2000/2009 25015G26KT BKN014
PROB40 TEMPO 2009/2018 -SHRA BKN014TCU
BECMG 2020/2022 4000 -RA BR BKN006 BKN012=

TAF EPWA 200230Z 2003/2103 27010KT 9999 SCT035
TEMPO 2003/2018 -SHRA BKN014CB
PROB40 TEMPO 2006/2018 28015G27KT=

TAF EPWR 200230Z 2003/2103 27010KT 9999 SCT030
TEMPO 2003/2024 27015G25KT SHRA BKN020CB=
Awiacja.imgw.pl jest pogodowym serwisem informacyjnym
Instytutu Meteorologii i Gospodarki Wodnej Państwowego Instytutu Badawczego.
Copyright IMGW PIB 2009-2011© Wszelkie prawa zastrzeżone.